Onawa, IA (51040)

4:52 AM CDT on July 28, 2015 (GMT -0500)
Tekamah | | Change Station
CLOSE
Current Station
Airport
Location: Tekamah,
Elevation: 1027 ft
Nearby Weather Stations

Elev 1027 ft 41.76 °N, 96.18 °W | Updated 13 minutes ago

Thunderstorm
Thunderstorm
75 °F
Feels Like 75 °F
N
20
Wind Variable Wind from SE
Gusts 34 mph

Today
High -- | Low -- °F
--% Chance of Precip.
Yesterday
High -- | Low -- °F
Precip. -- in
6:13 AM 8:47 PM
Waxing Gibbous, 88% visible
Pressure 29.75 in
Visibility 1.8 miles
Clouds Mostly Cloudy 2600 ft
Overcast 4400 ft
Dew Point 73 °F
Humidity 94%
Rainfall 0.27 in
Snow Depth Not available.
UV 0 out of 12
Pollen 5.90 out of 12
Air Quality Not available.
Flu Activity Not available.
SPECI KTQE 280939Z AUTO 14017G30KT 1 3/4SM TSRA BR BKN026 OVC044 24/23 A2975 RMK AO2 PK WND 14030/0939 LTG DSNT ALQDS P0066 T02390228

More Conditions Fewer Conditions

Pressure 29.75 in
Visibility 1.8 miles
Clouds Mostly Cloudy 2600 ft
Overcast 4400 ft
Dew Point 73 °F
Humidity 94%
Rainfall 0.27 in
Snow Depth Not available.
UV 0 out of 12
Pollen 5.90 out of 12
Air Quality Not available.
Flu Activity Not available.
SPECI KTQE 280939Z AUTO 14017G30KT 1 3/4SM TSRA BR BKN026 OVC044 24/23 A2975 RMK AO2 PK WND 14030/0939 LTG DSNT ALQDS P0066 T02390228

More Conditions Fewer Conditions

10-Day Weather Forecast

×

Almanac

Astronomy

Jul. 28, 2015 Rise Set
Actual Time
Civil Twilight
Nautical Twilight
Astronomical Twilight
Moon
Length of Visible Light
Length of Day
Tomorrow will be .
, % of the Moon is Illuminated

Today's Extremes

State Highs State Lows

Community

WunderPhotos

Upload Photos

1,841,800 photos uploaded!

WunderBlogs® & News

Nearby

Air Quality

  Air Quality AQ Index Pollutant
Not available.

Snow Depth

Station Depth Elevation

Earthquake Activity

City Distance Mag. Time & Date
Minimum magnitude displayed is 2.5.

Coastal Water Temperatures

Place Temperature

Stations

Nearby Weather Stations

Station Location Temp. Windchill Dew Point Humidity Wind Precip. Elev Updated Type